CCE weather

Capital International Airport
Cairo Governorate, Egypt

Public forecast

Using degrees Celsius for public forecast. Weather courtesy of forecast.io.

METAR (pilot weather report)

Closest report is Cairo International Airport, 22.7 nm (42.1 km) W. Retrieved 2019/04/24 17:30 UTC (16 minutes ago):

HECA 241730Z 03012KT 6000 NSC 20/10 Q1021 NOSIG

TAF (pilot weather forecast)

Closest forecast is Cairo International Airport, 22.7 nm (42.1 km) W. Retrieved 2019/04/24 12:51 UTC (5 hours ago):

TAF HECA 241100Z 2412/2518 06015G25KT 6000 NSC PROB30 TEMPO 2412/2418 4000 SA